createdAt,value
2022-11-02T00:01:22.415Z,20.45
2022-11-02T00:03:49.370Z,23.17
2022-11-02T00:06:16.242Z,20.83
2022-11-02T00:08:43.124Z,22.77
2022-11-02T00:11:09.982Z,27.98
2022-11-02T00:13:36.950Z,24.98
2022-11-02T00:16:10.431Z,22.17
2022-11-02T00:18:37.444Z,23.92
2022-11-02T00:21:04.881Z,23.67
2022-11-02T00:23:32.138Z,21.05
2022-11-02T00:26:02.207Z,23.60
2022-11-02T00:28:30.026Z,21.83
2022-11-02T00:30:56.909Z,20.45
2022-11-02T00:33:23.856Z,21.45
2022-11-02T00:35:50.686Z,22.48
2022-11-02T00:38:17.512Z,24.45
2022-11-02T00:40:44.362Z,21.70
2022-11-02T00:43:11.715Z,21.92
2022-11-02T00:45:38.793Z,21.80
2022-11-02T00:48:06.338Z,22.40
2022-11-02T00:50:33.550Z,20.45
2022-11-02T00:53:00.390Z,21.40
2022-11-02T00:55:27.265Z,23.60
2022-11-02T00:57:54.297Z,24.25
2022-11-02T01:00:21.280Z,22.55
2022-11-02T01:02:48.286Z,25.77
2022-11-02T01:05:15.849Z,23.98
2022-11-02T01:07:42.703Z,24.80
2022-11-02T01:10:10.782Z,23.02
2022-11-02T01:12:39.412Z,22.80
2022-11-02T01:15:08.257Z,24.60
2022-11-02T01:17:35.470Z,21.37
2022-11-02T01:20:02.781Z,20.67
2022-11-02T01:22:29.646Z,22.90
2022-11-02T01:24:56.532Z,20.85
2022-11-02T01:27:23.449Z,23.15
2022-11-02T01:29:50.332Z,27.50
2022-11-02T01:32:17.138Z,24.98
2022-11-02T01:34:44.003Z,25.80
2022-11-02T01:37:10.971Z,25.92
2022-11-02T01:39:37.826Z,26.87
2022-11-02T01:42:04.949Z,25.92
2022-11-02T01:44:34.144Z,25.45
2022-11-02T01:47:06.512Z,23.62
2022-11-02T01:49:37.235Z,25.35
2022-11-02T01:52:10.087Z,23.35
2022-11-02T01:54:44.243Z,23.65
2022-11-02T01:57:14.249Z,23.87
2022-11-02T01:59:56.358Z,21.12
2022-11-02T02:02:25.306Z,23.65
2022-11-02T02:04:56.454Z,21.73
2022-11-02T02:07:24.551Z,29.70
2022-11-02T02:09:52.403Z,21.27
2022-11-02T02:12:20.160Z,23.70
2022-11-02T02:14:47.536Z,20.88
2022-11-02T02:17:29.552Z,22.60
2022-11-02T02:20:08.682Z,18.23
2022-11-02T02:22:38.568Z,21.52
2022-11-02T02:25:34.443Z,22.30
2022-11-02T02:28:13.513Z,16.58
2022-11-02T02:30:44.893Z,18.15
2022-11-02T02:33:15.039Z,19.20
2022-11-02T02:35:55.634Z,18.75
2022-11-02T02:38:41.110Z,20.58
2022-11-02T02:41:15.182Z,18.95
2022-11-02T02:43:51.120Z,17.42
2022-11-02T02:46:46.657Z,18.45
2022-11-02T02:49:20.636Z,21.15
2022-11-02T02:51:47.631Z,19.45
2022-11-02T02:54:41.428Z,19.50
2022-11-02T02:57:11.492Z,19.75
2022-11-02T02:59:42.158Z,20.55
2022-11-02T03:02:26.254Z,18.02
2022-11-02T03:04:53.220Z,19.23
2022-11-02T03:07:33.964Z,18.27
2022-11-02T03:10:17.341Z,21.35
2022-11-02T03:13:07.750Z,20.62
2022-11-02T03:15:38.357Z,19.17
2022-11-02T03:18:26.698Z,19.02
2022-11-02T03:20:59.552Z,19.00
2022-11-02T03:23:29.126Z,17.37
2022-11-02T03:25:55.920Z,21.98
2022-11-02T03:28:48.422Z,18.52
2022-11-02T03:31:34.785Z,18.80
2022-11-02T03:34:32.529Z,18.98
2022-11-02T03:39:44.701Z,19.80
2022-11-02T03:42:14.377Z,21.23
2022-11-02T03:44:41.721Z,19.92
2022-11-02T03:47:11.864Z,19.42
2022-11-02T03:49:40.683Z,22.45
2022-11-02T03:52:10.819Z,20.48
2022-11-02T03:54:59.057Z,21.10
2022-11-02T03:57:39.641Z,20.65
2022-11-02T04:00:09.042Z,23.10
2022-11-02T04:02:38.045Z,23.42
2022-11-02T04:05:05.397Z,23.75
2022-11-02T04:07:58.357Z,23.38
2022-11-02T04:10:26.444Z,23.15
2022-11-02T04:13:11.877Z,22.45
2022-11-02T04:15:38.809Z,26.10
2022-11-02T04:18:24.124Z,21.65
2022-11-02T04:20:51.626Z,21.42
2022-11-02T04:23:45.117Z,21.37
2022-11-02T04:26:11.940Z,24.05
2022-11-02T04:28:38.750Z,20.48
2022-11-02T04:31:05.648Z,24.70
2022-11-02T04:33:35.392Z,22.50
2022-11-02T04:36:04.468Z,22.33
2022-11-02T04:38:40.602Z,21.65
2022-11-02T04:41:36.492Z,23.80
2022-11-02T04:44:04.294Z,21.25
2022-11-02T04:46:34.031Z,22.42
2022-11-02T04:49:00.950Z,22.98
2022-11-02T04:51:29.256Z,22.92
2022-11-02T04:53:57.626Z,23.08
2022-11-02T04:56:26.185Z,23.67
2022-11-02T04:58:55.249Z,24.10
2022-11-02T05:01:23.668Z,25.95
2022-11-02T05:03:51.442Z,28.17
2022-11-02T05:06:19.733Z,23.33
2022-11-02T05:08:46.959Z,21.65
2022-11-02T05:11:14.092Z,22.37
2022-11-02T05:13:41.814Z,23.25
2022-11-02T05:16:14.876Z,23.02
2022-11-02T05:18:42.292Z,23.42
2022-11-02T05:21:10.281Z,22.95
2022-11-02T05:23:37.264Z,25.20
2022-11-02T05:26:06.802Z,25.52
2022-11-02T05:28:34.256Z,20.98
2022-11-02T05:31:02.174Z,20.73
2022-11-02T05:33:30.797Z,23.30
2022-11-02T05:35:59.014Z,22.48
2022-11-02T05:38:26.566Z,22.70
2022-11-02T05:40:58.152Z,21.33
2022-11-02T05:43:25.643Z,24.48
2022-11-02T05:45:57.456Z,24.48
2022-11-02T05:48:25.126Z,21.65
2022-11-02T05:51:02.611Z,21.85
2022-11-02T05:53:34.227Z,24.85
2022-11-02T05:56:02.408Z,24.90
2022-11-02T05:58:29.577Z,22.15
2022-11-02T06:01:00.186Z,22.73
2022-11-02T06:03:27.043Z,22.92
2022-11-02T06:06:01.212Z,21.92
2022-11-02T06:08:28.221Z,24.67
2022-11-02T06:10:55.119Z,21.77
2022-11-02T06:13:22.090Z,18.98
2022-11-02T06:15:49.005Z,16.92
2022-11-02T06:18:15.868Z,21.27
2022-11-02T06:20:42.928Z,21.75
2022-11-02T06:23:09.790Z,18.83
2022-11-02T06:25:36.668Z,20.17
2022-11-02T06:28:03.547Z,18.67
2022-11-02T06:30:30.381Z,18.60
2022-11-02T06:32:58.668Z,18.23
2022-11-02T06:35:28.330Z,19.20
2022-11-02T06:37:55.176Z,19.33
2022-11-02T06:40:25.633Z,18.27
2022-11-02T06:43:15.286Z,18.77
2022-11-02T06:45:43.220Z,21.55
2022-11-02T06:48:10.088Z,17.25
2022-11-02T06:50:36.963Z,19.12
2022-11-02T06:53:04.116Z,20.20
2022-11-02T06:55:31.255Z,23.40
2022-11-02T06:57:58.133Z,23.30
2022-11-02T07:00:25.618Z,24.15
2022-11-02T07:03:10.127Z,37.83
2022-11-02T07:05:39.019Z,54.40
2022-11-02T07:08:05.940Z,47.67
2022-11-02T07:10:32.918Z,50.28
2022-11-02T07:13:00.370Z,48.25
2022-11-02T07:15:28.985Z,42.25
2022-11-02T07:17:56.669Z,30.73
2022-11-02T07:20:24.003Z,23.60
2022-11-02T07:22:59.767Z,29.65
2022-11-02T07:25:33.724Z,31.52
2022-11-02T07:28:01.586Z,40.50
2022-11-02T07:30:34.807Z,32.63
2022-11-02T07:33:01.879Z,28.80
2022-11-02T07:35:28.991Z,20.05
2022-11-02T07:38:00.868Z,23.77
2022-11-02T07:40:29.188Z,35.38
2022-11-02T07:42:57.252Z,27.37
2022-11-02T07:45:24.618Z,28.77
2022-11-02T07:47:51.766Z,23.42
2022-11-02T07:50:21.333Z,29.77
2022-11-02T07:52:52.848Z,27.37
2022-11-02T07:55:21.639Z,21.48
2022-11-02T07:57:55.723Z,23.30
2022-11-02T08:00:23.257Z,21.42
2022-11-02T08:02:54.724Z,21.25
2022-11-02T08:05:21.639Z,19.70
2022-11-02T08:07:49.152Z,17.67
2022-11-02T08:10:16.072Z,18.00
2022-11-02T08:12:43.153Z,19.62
2022-11-02T08:15:10.569Z,16.30
2022-11-02T08:17:37.406Z,16.92
2022-11-02T08:20:04.696Z,13.13
2022-11-02T08:22:31.540Z,15.77
2022-11-02T08:24:58.374Z,16.98
2022-11-02T08:27:32.971Z,15.00
2022-11-02T08:30:00.098Z,13.82
2022-11-02T08:32:26.965Z,14.25
2022-11-02T08:34:53.846Z,12.70
2022-11-02T08:37:20.706Z,13.23
2022-11-02T08:39:47.955Z,11.32
2022-11-02T08:42:14.782Z,13.00
2022-11-02T08:44:42.801Z,16.10
2022-11-02T08:47:09.968Z,15.40
2022-11-02T08:49:36.910Z,13.05
2022-11-02T08:52:03.844Z,13.43
2022-11-02T08:54:30.712Z,11.70
2022-11-02T08:56:57.578Z,14.93
2022-11-02T08:59:24.470Z,12.40
2022-11-02T09:01:51.445Z,12.98
2022-11-02T09:04:18.786Z,14.55
2022-11-02T09:06:45.617Z,12.27
2022-11-02T09:09:12.468Z,12.63
2022-11-02T09:11:39.299Z,11.00
2022-11-02T09:14:07.382Z,15.45
2022-11-02T09:16:40.196Z,12.00
2022-11-02T09:19:08.262Z,12.37
2022-11-02T09:21:35.181Z,12.37
2022-11-02T09:24:02.052Z,14.48
2022-11-02T09:26:28.986Z,11.05
2022-11-02T09:28:55.852Z,12.35
2022-11-02T09:31:22.710Z,11.15
2022-11-02T09:33:49.577Z,11.30
2022-11-02T09:36:16.468Z,10.07
2022-11-02T09:38:43.323Z,14.05
2022-11-02T09:41:20.413Z,9.82
2022-11-02T09:44:06.032Z,13.18
2022-11-02T09:46:41.332Z,13.10
2022-11-02T09:49:19.584Z,10.65
2022-11-02T09:51:51.628Z,10.75
2022-11-02T09:54:46.168Z,10.07
2022-11-02T09:57:21.196Z,10.50
2022-11-02T09:59:48.075Z,10.77
2022-11-02T10:02:57.038Z,9.43
2022-11-02T10:05:38.401Z,9.07
2022-11-02T10:08:23.668Z,9.15
2022-11-02T10:10:57.318Z,9.00
2022-11-02T10:13:42.543Z,9.48
2022-11-02T10:16:22.044Z,8.30
2022-11-02T10:18:50.616Z,9.02
2022-11-02T10:21:26.239Z,11.10
2022-11-02T10:23:55.643Z,10.63
2022-11-02T10:26:23.737Z,8.95
2022-11-02T10:29:12.528Z,6.60
2022-11-02T10:31:39.391Z,8.93
2022-11-02T10:34:14.654Z,8.63
2022-11-02T10:37:03.948Z,8.98
2022-11-02T10:39:54.357Z,11.30
2022-11-02T10:42:33.135Z,9.73
2022-11-02T10:45:05.913Z,13.43
2022-11-02T10:48:02.139Z,10.35
2022-11-02T10:50:46.732Z,12.00
2022-11-02T10:56:28.197Z,9.15
2022-11-02T10:58:59.554Z,9.43
2022-11-02T11:01:27.522Z,6.47
2022-11-02T11:03:55.977Z,5.50
2022-11-02T11:06:36.536Z,4.90
2022-11-02T11:09:16.777Z,4.65
2022-11-02T11:11:55.560Z,7.80
2022-11-02T11:20:09.442Z,6.00
2022-11-02T11:22:38.187Z,8.07
2022-11-02T11:25:11.153Z,5.85
2022-11-02T11:27:48.073Z,4.25
2022-11-02T11:33:25.200Z,7.50
2022-11-02T11:35:53.258Z,6.95
2022-11-02T11:38:23.055Z,7.72
2022-11-02T11:40:55.184Z,9.57
2022-11-02T11:43:25.258Z,7.95
2022-11-02T11:46:05.857Z,6.85
2022-11-02T11:48:39.468Z,5.50
2022-11-02T11:51:25.199Z,5.55
2022-11-02T11:54:18.734Z,9.65
2022-11-02T11:56:46.621Z,6.25
2022-11-02T11:59:27.341Z,6.00
2022-11-02T12:01:59.686Z,10.40
2022-11-02T12:04:36.368Z,5.93
2022-11-02T12:07:22.095Z,7.57
2022-11-02T12:10:15.269Z,7.00
2022-11-02T12:13:14.720Z,7.70
2022-11-02T12:16:07.708Z,6.75
2022-11-02T12:18:53.529Z,8.85
2022-11-02T12:22:02.441Z,7.70
2022-11-02T12:24:38.388Z,7.30
2022-11-02T12:27:41.673Z,6.47
2022-11-02T12:30:14.740Z,6.20
2022-11-02T12:32:50.184Z,9.45
2022-11-02T12:35:38.231Z,10.63
2022-11-02T12:38:27.307Z,9.05
2022-11-02T12:41:13.273Z,5.97
2022-11-02T12:43:45.975Z,6.03
2022-11-02T12:46:18.731Z,8.52
2022-11-02T12:49:04.117Z,8.80
2022-11-02T12:51:35.428Z,8.20
2022-11-02T12:54:11.208Z,9.43
2022-11-02T12:56:50.075Z,5.78
2022-11-02T12:59:44.049Z,5.05
2022-11-02T13:02:15.422Z,5.95
2022-11-02T13:04:46.635Z,6.80
2022-11-02T13:07:15.915Z,5.95
2022-11-02T13:09:53.500Z,6.55
2022-11-02T13:12:22.860Z,8.15
2022-11-02T13:14:51.877Z,8.20
2022-11-02T13:17:52.459Z,5.03
2022-11-02T13:20:41.025Z,6.25
2022-11-02T13:23:36.713Z,4.60
2022-11-02T13:26:08.105Z,3.28
2022-11-02T13:28:48.637Z,3.33
2022-11-02T13:31:39.427Z,4.53
2022-11-02T13:34:14.760Z,6.07
2022-11-02T13:36:42.627Z,5.07
2022-11-02T13:39:32.108Z,6.68
2022-11-02T13:42:29.230Z,4.45
2022-11-02T13:45:16.350Z,5.65
2022-11-02T13:47:49.182Z,3.85
2022-11-02T13:50:18.931Z,5.87
2022-11-02T13:52:51.000Z,6.18
2022-11-02T13:55:23.686Z,9.30
2022-11-02T13:57:54.052Z,8.80
2022-11-02T14:00:23.669Z,7.35
2022-11-02T14:02:58.181Z,7.97
2022-11-02T14:05:31.567Z,9.10
2022-11-02T14:08:06.461Z,7.70
2022-11-02T14:10:41.340Z,7.87
2022-11-02T14:13:13.900Z,8.50
2022-11-02T14:15:42.698Z,7.47
2022-11-02T14:18:09.653Z,8.40
2022-11-02T14:20:39.289Z,9.38
2022-11-02T14:23:12.241Z,10.98
2022-11-02T14:25:58.667Z,10.32
2022-11-02T14:28:34.268Z,7.65
2022-11-02T14:31:04.310Z,8.50
2022-11-02T14:33:40.389Z,8.50
2022-11-02T14:36:17.826Z,9.30
2022-11-02T14:39:14.864Z,7.40
2022-11-02T14:41:46.757Z,10.10
2022-11-02T14:44:32.548Z,10.35
2022-11-02T14:47:09.240Z,9.95
2022-11-02T14:49:40.794Z,8.60
2022-11-02T14:52:13.720Z,8.93
2022-11-02T14:55:04.684Z,8.25
2022-11-02T14:57:59.354Z,9.73
2022-11-02T15:00:35.417Z,13.55
2022-11-02T15:03:04.662Z,13.82
2022-11-02T15:05:35.902Z,16.37
2022-11-02T15:08:21.398Z,10.88
2022-11-02T15:10:48.347Z,13.02
2022-11-02T15:13:20.955Z,13.95
2022-11-02T15:15:50.823Z,11.05
2022-11-02T15:18:29.951Z,11.82
2022-11-02T15:21:12.493Z,12.15
2022-11-02T15:23:57.976Z,13.07
2022-11-02T15:26:41.809Z,18.33
2022-11-02T15:29:41.660Z,12.57
2022-11-02T15:32:17.060Z,13.80
2022-11-02T15:34:49.826Z,13.57
2022-11-02T15:37:23.195Z,11.65
2022-11-02T15:39:55.119Z,12.85
2022-11-02T15:42:49.864Z,14.38
2022-11-02T15:45:55.234Z,16.17
2022-11-02T15:48:50.191Z,13.45
2022-11-02T15:51:30.712Z,12.45
2022-11-02T15:54:14.274Z,12.82
2022-11-02T15:57:02.903Z,11.15
2022-11-02T15:59:48.203Z,12.13
2022-11-02T16:02:19.967Z,14.80
2022-11-02T16:04:48.416Z,13.15
2022-11-02T16:07:17.595Z,12.85
2022-11-02T16:09:46.788Z,13.50
2022-11-02T16:12:19.319Z,15.15
2022-11-02T16:14:52.345Z,13.68
2022-11-02T16:17:23.616Z,14.15
2022-11-02T16:19:51.050Z,15.48
2022-11-02T16:22:24.925Z,13.20
2022-11-02T16:24:53.695Z,14.43
2022-11-02T16:27:22.264Z,13.38
2022-11-02T16:29:50.067Z,15.40
2022-11-02T16:32:17.079Z,14.90
2022-11-02T16:34:44.330Z,16.70
2022-11-02T16:37:14.290Z,17.60
2022-11-02T16:39:45.489Z,14.38
2022-11-02T16:42:22.844Z,19.92
2022-11-02T16:44:55.803Z,18.27
2022-11-02T16:47:33.054Z,16.83
2022-11-02T16:50:00.036Z,15.18
2022-11-02T16:52:37.247Z,19.10
2022-11-02T16:55:30.275Z,20.67
2022-11-02T16:58:01.243Z,22.52
2022-11-02T17:00:28.229Z,18.08
2022-11-02T17:02:55.856Z,17.30
2022-11-02T17:05:26.442Z,19.58
2022-11-02T17:07:58.957Z,18.17
2022-11-02T17:10:27.738Z,18.50
2022-11-02T17:12:55.630Z,17.50
2022-11-02T17:15:24.643Z,18.65
2022-11-02T17:18:16.655Z,16.92
2022-11-02T17:20:43.575Z,21.33
2022-11-02T17:23:34.367Z,20.12
2022-11-02T17:26:22.585Z,17.52
2022-11-02T17:28:52.969Z,15.85
2022-11-02T17:31:38.232Z,21.70
2022-11-02T17:34:09.899Z,17.83
2022-11-02T17:36:44.867Z,21.15
2022-11-02T17:39:14.516Z,17.33
2022-11-02T17:42:07.603Z,16.85
2022-11-02T17:44:34.441Z,19.75
2022-11-02T17:47:01.297Z,18.75
2022-11-02T17:49:28.104Z,20.02
2022-11-02T17:51:54.988Z,21.77
2022-11-02T17:54:21.885Z,20.33
2022-11-02T17:56:48.752Z,17.15
2022-11-02T17:59:15.564Z,19.30
2022-11-02T18:01:42.600Z,18.20
2022-11-02T18:04:09.573Z,21.20
2022-11-02T18:06:36.427Z,18.83
2022-11-02T18:09:13.989Z,18.42
2022-11-02T18:11:41.311Z,17.83
2022-11-02T18:14:16.983Z,19.85
2022-11-02T18:16:44.208Z,17.77
2022-11-02T18:19:11.065Z,17.75
2022-11-02T18:21:38.180Z,15.23
2022-11-02T18:24:05.289Z,16.90
2022-11-02T18:26:32.222Z,13.85
2022-11-02T18:28:59.098Z,13.70
2022-11-02T18:31:25.933Z,15.93
2022-11-02T18:33:53.128Z,14.98
2022-11-02T18:36:20.141Z,16.08
2022-11-02T18:38:46.996Z,16.48
2022-11-02T18:41:35.023Z,16.65
2022-11-02T18:44:07.819Z,17.98
2022-11-02T18:46:38.757Z,15.88
2022-11-02T18:49:05.583Z,17.00
2022-11-02T18:51:32.543Z,15.43
2022-11-02T18:54:04.768Z,15.80
2022-11-02T18:56:31.701Z,15.57
2022-11-02T18:58:58.576Z,18.73
2022-11-02T19:01:26.531Z,15.48
2022-11-02T19:03:55.403Z,12.90
2022-11-02T19:06:41.668Z,14.00
2022-11-02T19:09:20.472Z,12.07
2022-11-02T19:11:54.830Z,11.60
2022-11-02T19:14:22.620Z,13.02
2022-11-02T19:16:49.707Z,14.05
2022-11-02T19:19:16.555Z,12.25
2022-11-02T19:21:43.568Z,13.77
2022-11-02T19:24:10.475Z,12.25
2022-11-02T19:26:37.788Z,11.52
2022-11-02T19:29:06.713Z,11.20
2022-11-02T19:31:34.965Z,0.08
2022-11-02T19:34:02.152Z,13.05
2022-11-02T19:36:28.990Z,11.75
2022-11-02T19:38:55.902Z,11.63
2022-11-02T19:41:24.048Z,12.13
2022-11-02T19:43:51.267Z,13.95
2022-11-02T19:46:20.632Z,13.23
2022-11-02T19:48:47.927Z,11.35
2022-11-02T19:51:25.982Z,10.65
2022-11-02T19:53:58.597Z,11.32
2022-11-02T19:56:27.789Z,39.63
2022-11-02T19:58:55.196Z,13.35
2022-11-02T20:01:30.594Z,12.57
2022-11-02T20:03:58.188Z,11.30
2022-11-02T20:06:32.555Z,9.57
2022-11-02T20:08:59.805Z,12.07
2022-11-02T20:11:27.657Z,11.05
2022-11-02T20:13:56.283Z,10.43
2022-11-02T20:16:23.121Z,10.23
2022-11-02T20:18:51.063Z,11.45
2022-11-02T20:21:20.869Z,11.52
2022-11-02T20:23:48.628Z,10.15
2022-11-02T20:26:20.377Z,11.70
2022-11-02T20:28:48.344Z,10.60
2022-11-02T20:31:19.816Z,11.10
2022-11-02T20:33:47.218Z,10.80
2022-11-02T20:36:14.820Z,9.10
2022-11-02T20:38:41.973Z,9.15
2022-11-02T20:41:14.354Z,10.20
2022-11-02T20:43:43.368Z,9.63
2022-11-02T20:49:19.812Z,10.68
2022-11-02T20:51:52.080Z,11.63
2022-11-02T20:54:19.999Z,10.57
2022-11-02T20:56:47.600Z,25.17
2022-11-02T20:59:14.937Z,29.00
2022-11-02T21:01:42.058Z,23.70
2022-11-02T21:04:09.094Z,16.80
2022-11-02T21:06:35.971Z,36.47
2022-11-02T21:09:09.088Z,61.60
2022-11-02T21:11:57.444Z,30.83
2022-11-02T21:14:24.695Z,104.63
2022-11-02T21:16:51.593Z,100.80
2022-11-02T21:19:18.473Z,115.30
2022-11-02T21:21:45.369Z,98.47
2022-11-02T21:24:12.486Z,126.62
2022-11-02T21:26:39.384Z,107.37
2022-11-02T21:29:06.317Z,108.72
2022-11-02T21:31:33.197Z,31.33
2022-11-02T21:34:00.147Z,29.12
2022-11-02T21:36:27.001Z,29.23
2022-11-02T21:38:54.022Z,34.03
2022-11-02T21:41:22.545Z,34.28
2022-11-02T21:43:52.114Z,27.87
2022-11-02T21:46:22.586Z,33.90
2022-11-02T21:48:49.820Z,24.12
2022-11-02T21:51:18.963Z,16.12
2022-11-02T21:53:46.849Z,12.40
2022-11-02T21:56:17.828Z,16.92
2022-11-02T21:58:46.473Z,14.87
2022-11-02T22:01:37.911Z,15.75
2022-11-02T22:04:05.410Z,20.42
2022-11-02T22:06:32.848Z,19.83
2022-11-02T22:09:00.900Z,19.92
2022-11-02T22:11:28.162Z,19.42
2022-11-02T22:13:56.952Z,18.37
2022-11-02T22:16:35.206Z,25.55
2022-11-02T22:19:03.879Z,63.97
2022-11-02T22:21:34.144Z,31.75
2022-11-02T22:24:01.213Z,26.00
2022-11-02T22:26:29.956Z,16.73
2022-11-02T22:28:57.955Z,15.18
2022-11-02T22:31:30.501Z,12.27
2022-11-02T22:33:59.498Z,14.07
2022-11-02T22:36:31.000Z,11.70
2022-11-02T22:38:59.103Z,10.50
2022-11-02T22:41:31.291Z,10.90
2022-11-02T22:44:00.260Z,11.95
2022-11-02T22:46:28.243Z,12.60
2022-11-02T22:48:56.608Z,10.88
2022-11-02T22:51:25.453Z,12.85
2022-11-02T22:53:52.487Z,14.50
2022-11-02T22:56:21.207Z,9.95
2022-11-02T22:58:48.773Z,11.30
2022-11-02T23:01:21.030Z,11.25
2022-11-02T23:03:48.619Z,11.73
2022-11-02T23:06:16.937Z,10.77
2022-11-02T23:08:45.898Z,10.93
2022-11-02T23:11:22.593Z,9.18
2022-11-02T23:14:01.447Z,13.70
2022-11-02T23:16:39.838Z,15.07
2022-11-02T23:19:25.197Z,14.25
2022-11-02T23:22:16.150Z,12.47
2022-11-02T23:25:12.065Z,10.88
2022-11-02T23:28:14.569Z,10.27
2022-11-02T23:31:00.588Z,12.65
2022-11-02T23:33:32.103Z,10.15
2022-11-02T23:36:12.667Z,13.05
2022-11-02T23:38:59.393Z,12.52
2022-11-02T23:41:26.629Z,11.50
2022-11-02T23:44:12.007Z,11.98
2022-11-02T23:46:40.059Z,12.10
2022-11-02T23:49:07.202Z,12.13
2022-11-02T23:51:52.452Z,11.27
2022-11-02T23:54:37.912Z,12.95
2022-11-02T23:57:04.750Z,12.25
2022-11-02T23:59:31.641Z,12.90
